IBB18XQ GCLP-LEGR
Flight info
| Callsign | IBB18XQ |
|---|---|
| Flight time | 1h 53m |
| Altitude | 38000 |
| Route | KORAL9A KORAL UG5 SONSO DCT ADUBI N871 VJF DCT MAR MAR4D |
| Aircraft | E190/M-SDGHIJ1RWY/LB1 |
Departure
| Time | 2026-04-22 08:51 |
|---|---|
| Airport | Gran Canaria Airport (GCLP) |
Arrival
| Time | 2026-04-22 10:45 |
|---|---|
| Airport | F.G.L. Airport Granada-Jaén Airport (LEGR) |
| Time | Latitude | Longitude | Altitude | Speed | Heading |
|---|---|---|---|---|---|
| 2026-04-22 08:36 | 27.93744 | -15.38693 | 105 ft | 0 kts | 291° |
| 2026-04-22 08:45 | 27.93745 | -15.38694 | 105 ft | 0 kts | 291° |
| 2026-04-22 08:45 | 27.93750 | -15.38709 | 106 ft | 3 kts | 291° |
| 2026-04-22 08:45 | 27.93755 | -15.38748 | 109 ft | 6 kts | 253° |
| 2026-04-22 08:46 | 27.93704 | -15.38789 | 111 ft | 12 kts | 202° |
| 2026-04-22 08:46 | 27.93613 | -15.38829 | 110 ft | 16 kts | 202° |
| 2026-04-22 08:46 | 27.93501 | -15.38870 | 108 ft | 14 kts | 190° |
| 2026-04-22 08:46 | 27.93439 | -15.38795 | 100 ft | 17 kts | 111° |
| 2026-04-22 08:47 | 27.93375 | -15.38769 | 96 ft | 11 kts | 203° |
| 2026-04-22 08:47 | 27.93300 | -15.38803 | 96 ft | 12 kts | 202° |
| 2026-04-22 08:47 | 27.93213 | -15.38842 | 95 ft | 15 kts | 202° |
| 2026-04-22 08:47 | 27.93096 | -15.38898 | 95 ft | 20 kts | 203° |
| 2026-04-22 08:48 | 27.92951 | -15.38963 | 95 ft | 22 kts | 202° |
| 2026-04-22 08:48 | 27.92809 | -15.39026 | 98 ft | 22 kts | 201° |
| 2026-04-22 08:48 | 27.92668 | -15.39088 | 103 ft | 21 kts | 202° |
| 2026-04-22 08:48 | 27.92534 | -15.39149 | 107 ft | 20 kts | 201° |
| 2026-04-22 08:49 | 27.92403 | -15.39206 | 112 ft | 20 kts | 202° |
| 2026-04-22 08:49 | 27.92272 | -15.39264 | 115 ft | 20 kts | 202° |
| 2026-04-22 08:49 | 27.92134 | -15.39307 | 116 ft | 20 kts | 180° |
| 2026-04-22 08:49 | 27.91986 | -15.39299 | 113 ft | 22 kts | 176° |
| 2026-04-22 08:50 | 27.91871 | -15.39188 | 107 ft | 24 kts | 110° |
| 2026-04-22 08:50 | 27.91831 | -15.39066 | 99 ft | 8 kts | 111° |
| 2026-04-22 08:50 | 27.91847 | -15.39020 | 97 ft | 3 kts | 22° |
| 2026-04-22 08:50 | 27.91855 | -15.39017 | 96 ft | 7 kts | 22° |
| 2026-04-22 08:51 | 27.92162 | -15.38882 | 83 ft | 83 kts | 21° |
| 2026-04-22 08:51 | 27.92905 | -15.38554 | 61 ft | 143 kts | 21° |
| 2026-04-22 08:51 | 27.93920 | -15.38086 | 332 ft | 163 kts | 22° |
| 2026-04-22 08:51 | 27.94956 | -15.37582 | 1032 ft | 162 kts | 22° |
| 2026-04-22 08:52 | 27.96014 | -15.37136 | 1634 ft | 172 kts | 18° |
| 2026-04-22 08:52 | 27.97218 | -15.36708 | 2128 ft | 193 kts | 19° |
| 2026-04-22 08:52 | 27.98569 | -15.36183 | 2595 ft | 218 kts | 19° |
| 2026-04-22 08:52 | 28.00056 | -15.35588 | 3249 ft | 236 kts | 20° |
| 2026-04-22 08:53 | 28.01674 | -15.34928 | 3826 ft | 258 kts | 20° |
| 2026-04-22 08:53 | 28.03397 | -15.34217 | 4607 ft | 270 kts | 20° |
| 2026-04-22 08:53 | 28.05174 | -15.33459 | 5438 ft | 279 kts | 21° |
| 2026-04-22 08:53 | 28.06995 | -15.32670 | 6294 ft | 285 kts | 21° |
| 2026-04-22 08:54 | 28.08851 | -15.31864 | 7153 ft | 290 kts | 20° |
| 2026-04-22 08:54 | 28.10739 | -15.31044 | 7960 ft | 295 kts | 20° |
| 2026-04-22 08:54 | 28.12677 | -15.30201 | 8740 ft | 301 kts | 20° |
| 2026-04-22 08:54 | 28.14470 | -15.28971 | 9465 ft | 307 kts | 47° |
| 2026-04-22 08:55 | 28.15732 | -15.27021 | 10201 ft | 311 kts | 57° |
| 2026-04-22 08:55 | 28.16933 | -15.24972 | 10881 ft | 317 kts | 57° |
| 2026-04-22 08:55 | 28.18164 | -15.22869 | 11462 ft | 327 kts | 57° |
| 2026-04-22 08:55 | 28.19437 | -15.20691 | 11997 ft | 338 kts | 57° |
| 2026-04-22 08:56 | 28.20746 | -15.18450 | 12554 ft | 347 kts | 57° |
| 2026-04-22 08:56 | 28.22083 | -15.16161 | 13205 ft | 352 kts | 57° |
| 2026-04-22 08:56 | 28.23435 | -15.13845 | 13880 ft | 356 kts | 58° |
| 2026-04-22 08:56 | 28.24801 | -15.11503 | 14549 ft | 359 kts | 58° |
| 2026-04-22 08:57 | 28.26196 | -15.09109 | 15197 ft | 364 kts | 57° |
| 2026-04-22 08:57 | 28.27584 | -15.06726 | 15810 ft | 368 kts | 57° |
| 2026-04-22 08:57 | 28.28995 | -15.04303 | 16424 ft | 372 kts | 57° |
| 2026-04-22 08:57 | 28.30425 | -15.01846 | 17018 ft | 377 kts | 57° |
| 2026-04-22 08:58 | 28.31887 | -14.99332 | 17647 ft | 380 kts | 57° |
| 2026-04-22 08:58 | 28.33324 | -14.96858 | 18264 ft | 383 kts | 57° |
| 2026-04-22 08:58 | 28.34803 | -14.94313 | 18872 ft | 386 kts | 57° |
| 2026-04-22 08:58 | 28.36285 | -14.91760 | 19462 ft | 390 kts | 57° |
| 2026-04-22 08:59 | 28.37784 | -14.89177 | 20059 ft | 393 kts | 57° |
| 2026-04-22 08:59 | 28.39283 | -14.86592 | 20673 ft | 395 kts | 57° |
| 2026-04-22 08:59 | 28.40796 | -14.83981 | 21241 ft | 399 kts | 57° |
| 2026-04-22 08:59 | 28.42322 | -14.81346 | 21778 ft | 403 kts | 56° |
| 2026-04-22 09:00 | 28.43861 | -14.78687 | 22346 ft | 405 kts | 56° |
| 2026-04-22 09:00 | 28.45410 | -14.76008 | 22911 ft | 408 kts | 56° |
| 2026-04-22 09:00 | 28.46970 | -14.73310 | 23421 ft | 412 kts | 56° |
| 2026-04-22 09:00 | 28.48548 | -14.70578 | 23910 ft | 415 kts | 56° |
| 2026-04-22 09:01 | 28.50137 | -14.67825 | 24355 ft | 420 kts | 56° |
| 2026-04-22 09:01 | 28.51741 | -14.65045 | 24847 ft | 424 kts | 56° |
| 2026-04-22 09:01 | 28.53359 | -14.62239 | 25307 ft | 428 kts | 56° |
| 2026-04-22 09:01 | 28.54990 | -14.59408 | 25764 ft | 432 kts | 56° |
| 2026-04-22 09:02 | 28.56631 | -14.56558 | 26263 ft | 434 kts | 55° |
| 2026-04-22 09:02 | 28.58303 | -14.53652 | 26737 ft | 437 kts | 55° |
| 2026-04-22 09:02 | 28.59949 | -14.50790 | 27199 ft | 440 kts | 55° |
| 2026-04-22 09:02 | 28.61641 | -14.47845 | 27648 ft | 443 kts | 55° |
| 2026-04-22 09:03 | 28.63333 | -14.44898 | 28064 ft | 447 kts | 55° |
| 2026-04-22 09:03 | 28.65034 | -14.41933 | 28493 ft | 450 kts | 55° |
| 2026-04-22 09:03 | 28.66746 | -14.38947 | 28909 ft | 454 kts | 55° |
| 2026-04-22 09:03 | 28.68481 | -14.35920 | 29306 ft | 457 kts | 55° |
| 2026-04-22 09:04 | 28.70223 | -14.32876 | 29693 ft | 461 kts | 56° |
| 2026-04-22 09:04 | 28.71976 | -14.29812 | 30050 ft | 464 kts | 55° |
| 2026-04-22 09:04 | 28.73724 | -14.26754 | 30342 ft | 468 kts | 55° |
| 2026-04-22 09:04 | 28.75515 | -14.23620 | 30593 ft | 474 kts | 54° |
| 2026-04-22 09:05 | 28.77345 | -14.20414 | 30870 ft | 478 kts | 54° |
| 2026-04-22 09:05 | 28.79175 | -14.17205 | 31160 ft | 482 kts | 54° |
| 2026-04-22 09:05 | 28.81025 | -14.13960 | 31432 ft | 486 kts | 54° |
| 2026-04-22 09:05 | 28.82885 | -14.10695 | 31691 ft | 490 kts | 54° |
| 2026-04-22 09:06 | 28.84776 | -14.07371 | 32013 ft | 492 kts | 53° |
| 2026-04-22 09:06 | 28.86667 | -14.04046 | 32364 ft | 494 kts | 53° |
| 2026-04-22 09:06 | 28.88527 | -14.00774 | 32679 ft | 495 kts | 53° |
| 2026-04-22 09:06 | 28.90405 | -13.97463 | 33017 ft | 497 kts | 52° |
| 2026-04-22 09:07 | 28.92288 | -13.94145 | 33328 ft | 498 kts | 52° |
| 2026-04-22 09:07 | 28.94164 | -13.90836 | 33662 ft | 500 kts | 52° |
| 2026-04-22 09:07 | 28.96059 | -13.87491 | 34086 ft | 500 kts | 52° |
| 2026-04-22 09:07 | 28.97954 | -13.84142 | 34500 ft | 500 kts | 51° |
| 2026-04-22 09:08 | 28.99841 | -13.80804 | 34971 ft | 498 kts | 51° |
| 2026-04-22 09:08 | 29.01718 | -13.77484 | 35323 ft | 499 kts | 51° |
| 2026-04-22 09:08 | 29.03590 | -13.74167 | 35721 ft | 499 kts | 51° |
| 2026-04-22 09:08 | 29.05477 | -13.70824 | 36012 ft | 501 kts | 51° |
| 2026-04-22 09:09 | 29.07372 | -13.67460 | 36363 ft | 502 kts | 51° |
| 2026-04-22 09:09 | 29.09241 | -13.64142 | 36746 ft | 501 kts | 50° |
| 2026-04-22 09:09 | 29.11134 | -13.60776 | 37090 ft | 501 kts | 50° |
| 2026-04-22 09:09 | 29.13015 | -13.57433 | 37404 ft | 502 kts | 50° |
| 2026-04-22 09:10 | 29.14910 | -13.54061 | 37716 ft | 503 kts | 50° |
| 2026-04-22 09:10 | 29.16792 | -13.50716 | 37941 ft | 504 kts | 49° |
| 2026-04-22 09:10 | 29.18796 | -13.47455 | 38006 ft | 500 kts | 46° |
| 2026-04-22 09:11 | 29.22833 | -13.40885 | 38024 ft | 514 kts | 47° |
| 2026-04-22 09:11 | 29.26992 | -13.34083 | 38019 ft | 528 kts | 47° |
| 2026-04-22 09:12 | 29.31170 | -13.27239 | 37998 ft | 527 kts | 48° |
| 2026-04-22 09:12 | 29.35360 | -13.20360 | 38005 ft | 526 kts | 47° |
| 2026-04-22 09:13 | 29.39526 | -13.13514 | 38004 ft | 525 kts | 48° |
| 2026-04-22 09:13 | 29.43691 | -13.06658 | 38007 ft | 524 kts | 48° |
| 2026-04-22 09:14 | 29.47871 | -12.99767 | 38014 ft | 528 kts | 48° |
| 2026-04-22 09:14 | 29.52023 | -12.92907 | 38010 ft | 522 kts | 48° |
| 2026-04-22 09:15 | 29.56165 | -12.86053 | 38016 ft | 524 kts | 48° |
| 2026-04-22 09:15 | 29.60285 | -12.79225 | 38017 ft | 520 kts | 48° |
| 2026-04-22 09:16 | 29.64410 | -12.72379 | 38015 ft | 520 kts | 48° |
| 2026-04-22 09:16 | 29.68529 | -12.65530 | 38020 ft | 522 kts | 48° |
| 2026-04-22 09:17 | 29.72638 | -12.58685 | 38017 ft | 520 kts | 49° |
| 2026-04-22 09:17 | 29.76700 | -12.51841 | 38017 ft | 519 kts | 49° |
| 2026-04-22 09:18 | 29.80773 | -12.44954 | 38027 ft | 518 kts | 48° |
| 2026-04-22 09:18 | 29.84798 | -12.38139 | 38022 ft | 520 kts | 48° |
| 2026-04-22 09:19 | 29.88839 | -12.31283 | 37998 ft | 514 kts | 49° |
| 2026-04-22 09:19 | 29.92866 | -12.24443 | 38009 ft | 521 kts | 49° |
| 2026-04-22 09:20 | 29.96865 | -12.17635 | 38007 ft | 516 kts | 49° |
| 2026-04-22 09:20 | 30.01033 | -12.10930 | 38007 ft | 504 kts | 40° |
| 2026-04-22 09:21 | 30.06189 | -12.05664 | 38017 ft | 493 kts | 29° |
| 2026-04-22 09:21 | 30.11527 | -12.00805 | 37994 ft | 496 kts | 30° |
| 2026-04-22 09:22 | 30.16906 | -11.95889 | 37992 ft | 494 kts | 30° |
| 2026-04-22 09:22 | 30.22249 | -11.90996 | 37993 ft | 489 kts | 30° |
| 2026-04-22 09:23 | 30.27589 | -11.86105 | 38000 ft | 494 kts | 30° |
| 2026-04-22 09:23 | 30.32960 | -11.81174 | 37988 ft | 491 kts | 30° |
| 2026-04-22 09:24 | 30.38279 | -11.76284 | 37998 ft | 488 kts | 30° |
| 2026-04-22 09:24 | 30.43611 | -11.71375 | 37997 ft | 489 kts | 30° |
| 2026-04-22 09:25 | 30.48936 | -11.66467 | 37990 ft | 490 kts | 31° |
| 2026-04-22 09:25 | 30.54215 | -11.61592 | 37980 ft | 487 kts | 30° |
| 2026-04-22 09:26 | 30.59559 | -11.56653 | 38003 ft | 490 kts | 31° |
| 2026-04-22 09:26 | 30.64848 | -11.51756 | 37993 ft | 490 kts | 31° |
| 2026-04-22 09:27 | 30.70166 | -11.46824 | 37996 ft | 488 kts | 31° |
| 2026-04-22 09:27 | 30.75459 | -11.41909 | 37996 ft | 489 kts | 31° |
| 2026-04-22 09:28 | 30.80757 | -11.36983 | 37992 ft | 489 kts | 31° |
| 2026-04-22 09:28 | 30.86037 | -11.32065 | 37981 ft | 484 kts | 32° |
| 2026-04-22 09:29 | 30.91335 | -11.27124 | 37995 ft | 486 kts | 32° |
| 2026-04-22 09:29 | 30.96586 | -11.22221 | 37986 ft | 488 kts | 32° |
| 2026-04-22 09:30 | 31.01891 | -11.17258 | 37988 ft | 486 kts | 32° |
| 2026-04-22 09:30 | 31.07143 | -11.12338 | 37980 ft | 485 kts | 32° |
| 2026-04-22 09:31 | 31.12404 | -11.07403 | 37988 ft | 485 kts | 33° |
| 2026-04-22 09:31 | 31.17628 | -11.02495 | 37994 ft | 486 kts | 33° |
| 2026-04-22 09:32 | 31.22891 | -10.97544 | 37985 ft | 485 kts | 33° |
| 2026-04-22 09:32 | 31.28143 | -10.92594 | 37988 ft | 484 kts | 33° |
| 2026-04-22 09:33 | 31.33369 | -10.87664 | 37992 ft | 484 kts | 33° |
| 2026-04-22 09:33 | 31.38608 | -10.82714 | 37986 ft | 485 kts | 33° |
| 2026-04-22 09:34 | 31.43817 | -10.77784 | 38004 ft | 484 kts | 33° |
| 2026-04-22 09:34 | 31.49029 | -10.72843 | 38000 ft | 483 kts | 33° |
| 2026-04-22 09:35 | 31.56869 | -10.65399 | 38000 ft | 481 kts | 33° |
| 2026-04-22 09:35 | 31.62049 | -10.60471 | 37996 ft | 482 kts | 33° |
| 2026-04-22 09:36 | 31.67233 | -10.55533 | 38000 ft | 481 kts | 34° |
| 2026-04-22 09:36 | 31.72416 | -10.50586 | 38005 ft | 481 kts | 33° |
| 2026-04-22 09:37 | 31.77613 | -10.45622 | 37997 ft | 481 kts | 34° |
| 2026-04-22 09:37 | 31.82752 | -10.40703 | 38005 ft | 479 kts | 34° |
| 2026-04-22 09:38 | 31.87940 | -10.35731 | 38003 ft | 479 kts | 34° |
| 2026-04-22 09:38 | 31.93075 | -10.30802 | 37994 ft | 480 kts | 34° |
| 2026-04-22 09:39 | 31.98252 | -10.25825 | 37995 ft | 479 kts | 34° |
| 2026-04-22 09:39 | 32.03402 | -10.20867 | 37987 ft | 478 kts | 34° |
| 2026-04-22 09:40 | 32.08538 | -10.15915 | 37993 ft | 479 kts | 35° |
| 2026-04-22 09:40 | 32.13701 | -10.10930 | 37994 ft | 479 kts | 35° |
| 2026-04-22 09:41 | 32.18830 | -10.05970 | 37993 ft | 478 kts | 35° |
| 2026-04-22 09:41 | 32.23994 | -10.00969 | 37993 ft | 479 kts | 35° |
| 2026-04-22 09:42 | 32.29128 | -9.95989 | 37992 ft | 479 kts | 35° |
| 2026-04-22 09:42 | 32.34232 | -9.91030 | 37993 ft | 477 kts | 35° |
| 2026-04-22 09:43 | 32.39370 | -9.86032 | 37992 ft | 478 kts | 35° |
| 2026-04-22 09:43 | 32.44482 | -9.81050 | 37993 ft | 478 kts | 35° |
| 2026-04-22 09:44 | 32.49627 | -9.76029 | 38002 ft | 477 kts | 35° |
| 2026-04-22 09:44 | 32.54704 | -9.71067 | 37999 ft | 477 kts | 35° |
| 2026-04-22 09:45 | 32.59819 | -9.66060 | 38004 ft | 477 kts | 36° |
| 2026-04-22 09:45 | 32.64925 | -9.61054 | 37996 ft | 477 kts | 35° |
| 2026-04-22 09:46 | 32.70038 | -9.56035 | 38002 ft | 477 kts | 36° |
| 2026-04-22 09:46 | 32.75135 | -9.51022 | 38001 ft | 476 kts | 35° |
| 2026-04-22 09:47 | 32.80222 | -9.46012 | 38003 ft | 476 kts | 36° |
| 2026-04-22 09:47 | 32.85306 | -9.40997 | 38001 ft | 476 kts | 36° |
| 2026-04-22 09:48 | 32.90390 | -9.35975 | 38007 ft | 475 kts | 36° |
| 2026-04-22 09:48 | 32.95497 | -9.30921 | 37998 ft | 474 kts | 36° |
| 2026-04-22 09:49 | 33.00561 | -9.25903 | 37995 ft | 476 kts | 36° |
| 2026-04-22 09:49 | 33.05627 | -9.20875 | 37999 ft | 476 kts | 36° |
| 2026-04-22 09:50 | 33.10722 | -9.15811 | 38009 ft | 475 kts | 36° |
| 2026-04-22 09:50 | 33.15757 | -9.10797 | 38009 ft | 474 kts | 36° |
| 2026-04-22 09:51 | 33.20828 | -9.05741 | 38009 ft | 472 kts | 36° |
| 2026-04-22 09:51 | 33.25850 | -9.00725 | 38012 ft | 473 kts | 36° |
| 2026-04-22 09:52 | 33.30888 | -8.95685 | 38010 ft | 473 kts | 36° |
| 2026-04-22 09:52 | 33.35922 | -8.90642 | 38006 ft | 473 kts | 36° |
| 2026-04-22 09:53 | 33.40948 | -8.85599 | 38002 ft | 473 kts | 36° |
| 2026-04-22 09:53 | 33.45979 | -8.80543 | 37993 ft | 473 kts | 36° |
| 2026-04-22 09:54 | 33.51022 | -8.75468 | 37995 ft | 473 kts | 36° |
| 2026-04-22 09:54 | 33.56033 | -8.70416 | 38000 ft | 473 kts | 36° |
| 2026-04-22 09:55 | 33.61046 | -8.65354 | 37996 ft | 472 kts | 36° |
| 2026-04-22 09:55 | 33.66082 | -8.60262 | 37994 ft | 471 kts | 36° |
| 2026-04-22 09:56 | 33.71069 | -8.55210 | 38002 ft | 471 kts | 36° |
| 2026-04-22 09:56 | 33.76078 | -8.50128 | 38003 ft | 471 kts | 36° |
| 2026-04-22 09:57 | 33.81078 | -8.45049 | 37999 ft | 470 kts | 36° |
| 2026-04-22 09:57 | 33.86064 | -8.39974 | 38001 ft | 470 kts | 36° |
| 2026-04-22 09:58 | 33.91047 | -8.34894 | 38000 ft | 470 kts | 37° |
| 2026-04-22 09:58 | 33.96008 | -8.29829 | 37992 ft | 471 kts | 37° |
| 2026-04-22 09:59 | 34.01021 | -8.24703 | 37990 ft | 470 kts | 37° |
| 2026-04-22 09:59 | 34.05972 | -8.19632 | 37993 ft | 470 kts | 36° |
| 2026-04-22 10:00 | 34.10939 | -8.14536 | 37993 ft | 470 kts | 37° |
| 2026-04-22 10:00 | 34.15915 | -8.09425 | 37992 ft | 471 kts | 37° |
| 2026-04-22 10:01 | 34.20882 | -8.04312 | 37990 ft | 471 kts | 37° |
| 2026-04-22 10:01 | 34.25885 | -7.99155 | 37989 ft | 470 kts | 37° |
| 2026-04-22 10:02 | 34.30854 | -7.94024 | 37988 ft | 470 kts | 36° |
| 2026-04-22 10:02 | 34.35810 | -7.88900 | 37988 ft | 470 kts | 37° |
| 2026-04-22 10:03 | 34.40757 | -7.83775 | 37989 ft | 470 kts | 37° |
| 2026-04-22 10:03 | 34.45698 | -7.78650 | 37990 ft | 470 kts | 37° |
| 2026-04-22 10:04 | 34.50663 | -7.73491 | 37991 ft | 468 kts | 37° |
| 2026-04-22 10:04 | 34.55606 | -7.68345 | 37991 ft | 469 kts | 37° |
| 2026-04-22 10:05 | 34.60532 | -7.63209 | 37992 ft | 469 kts | 37° |
| 2026-04-22 10:05 | 34.65469 | -7.58054 | 37989 ft | 469 kts | 37° |
| 2026-04-22 10:06 | 34.70419 | -7.52878 | 37992 ft | 469 kts | 37° |
| 2026-04-22 10:06 | 34.75362 | -7.47699 | 37993 ft | 469 kts | 36° |
| 2026-04-22 10:07 | 34.80291 | -7.42526 | 37991 ft | 468 kts | 37° |
| 2026-04-22 10:07 | 34.85229 | -7.37336 | 37994 ft | 469 kts | 37° |
| 2026-04-22 10:08 | 34.90152 | -7.32153 | 37986 ft | 469 kts | 37° |
| 2026-04-22 10:08 | 34.95051 | -7.26987 | 37985 ft | 468 kts | 37° |
| 2026-04-22 10:09 | 34.99975 | -7.21786 | 37986 ft | 468 kts | 37° |
| 2026-04-22 10:09 | 35.04877 | -7.16598 | 37988 ft | 467 kts | 37° |
| 2026-04-22 10:10 | 35.09774 | -7.11410 | 37987 ft | 468 kts | 37° |
| 2026-04-22 10:10 | 35.14718 | -7.06160 | 37988 ft | 468 kts | 37° |
| 2026-04-22 10:11 | 35.19598 | -7.00972 | 37988 ft | 467 kts | 37° |
| 2026-04-22 10:11 | 35.24476 | -6.95777 | 37990 ft | 467 kts | 37° |
| 2026-04-22 10:12 | 35.29386 | -6.90537 | 37988 ft | 466 kts | 37° |
| 2026-04-22 10:12 | 35.34259 | -6.85331 | 37991 ft | 465 kts | 37° |
| 2026-04-22 10:13 | 35.39120 | -6.80127 | 37995 ft | 466 kts | 37° |
| 2026-04-22 10:13 | 35.43979 | -6.74918 | 37996 ft | 464 kts | 37° |
| 2026-04-22 10:14 | 35.48838 | -6.69699 | 38000 ft | 465 kts | 37° |
| 2026-04-22 10:14 | 35.53712 | -6.64456 | 38000 ft | 465 kts | 37° |
| 2026-04-22 10:15 | 35.58550 | -6.59242 | 38001 ft | 465 kts | 37° |
| 2026-04-22 10:15 | 35.63392 | -6.54016 | 38003 ft | 464 kts | 37° |
| 2026-04-22 10:16 | 35.68232 | -6.48783 | 38003 ft | 464 kts | 37° |
| 2026-04-22 10:16 | 35.73078 | -6.43535 | 38007 ft | 465 kts | 37° |
| 2026-04-22 10:17 | 35.77916 | -6.38286 | 38009 ft | 464 kts | 37° |
| 2026-04-22 10:17 | 35.82753 | -6.33030 | 37999 ft | 464 kts | 38° |
| 2026-04-22 10:18 | 35.87903 | -6.28427 | 38009 ft | 459 kts | 30° |
| 2026-04-22 10:18 | 35.93171 | -6.23991 | 38005 ft | 459 kts | 31° |
| 2026-04-22 10:19 | 35.98429 | -6.19494 | 38007 ft | 458 kts | 31° |
| 2026-04-22 10:19 | 36.03637 | -6.15030 | 38007 ft | 459 kts | 31° |
| 2026-04-22 10:20 | 36.06236 | -6.12798 | 37995 ft | 446 kts | 31° |
| 2026-04-22 10:20 | 36.08769 | -6.10622 | 38000 ft | 439 kts | 30° |
| 2026-04-22 10:20 | 36.13790 | -6.06305 | 37955 ft | 444 kts | 30° |
| 2026-04-22 10:21 | 36.16331 | -6.04115 | 37447 ft | 445 kts | 30° |
| 2026-04-22 10:21 | 36.18848 | -6.01946 | 36970 ft | 443 kts | 31° |
| 2026-04-22 10:21 | 36.21402 | -5.99743 | 36482 ft | 443 kts | 31° |
| 2026-04-22 10:21 | 36.23876 | -5.97498 | 35992 ft | 447 kts | 36° |
| 2026-04-22 10:22 | 36.26128 | -5.94829 | 35507 ft | 453 kts | 41° |
| 2026-04-22 10:22 | 36.28345 | -5.92048 | 34995 ft | 454 kts | 41° |
| 2026-04-22 10:22 | 36.30553 | -5.89281 | 34493 ft | 457 kts | 41° |
| 2026-04-22 10:22 | 36.32787 | -5.86482 | 34006 ft | 458 kts | 41° |
| 2026-04-22 10:23 | 36.35052 | -5.83640 | 33494 ft | 458 kts | 41° |
| 2026-04-22 10:23 | 36.37284 | -5.80838 | 32985 ft | 459 kts | 41° |
| 2026-04-22 10:23 | 36.39514 | -5.78037 | 32481 ft | 459 kts | 41° |
| 2026-04-22 10:23 | 36.41746 | -5.75230 | 31976 ft | 459 kts | 41° |
| 2026-04-22 10:24 | 36.43985 | -5.72412 | 31468 ft | 460 kts | 41° |
| 2026-04-22 10:24 | 36.46241 | -5.69571 | 30961 ft | 461 kts | 42° |
| 2026-04-22 10:24 | 36.48468 | -5.66763 | 30459 ft | 459 kts | 42° |
| 2026-04-22 10:24 | 36.50719 | -5.63923 | 29948 ft | 454 kts | 42° |
| 2026-04-22 10:25 | 36.52909 | -5.61156 | 29450 ft | 450 kts | 42° |
| 2026-04-22 10:25 | 36.55092 | -5.58399 | 28957 ft | 447 kts | 42° |
| 2026-04-22 10:25 | 36.57253 | -5.55663 | 28464 ft | 444 kts | 42° |
| 2026-04-22 10:25 | 36.59411 | -5.52932 | 27976 ft | 442 kts | 42° |
| 2026-04-22 10:26 | 36.61544 | -5.50228 | 27493 ft | 439 kts | 42° |
| 2026-04-22 10:26 | 36.63681 | -5.47518 | 27007 ft | 436 kts | 42° |
| 2026-04-22 10:26 | 36.65785 | -5.44848 | 26532 ft | 433 kts | 42° |
| 2026-04-22 10:26 | 36.67882 | -5.42184 | 26057 ft | 430 kts | 42° |
| 2026-04-22 10:27 | 36.69972 | -5.39527 | 25582 ft | 427 kts | 43° |
| 2026-04-22 10:27 | 36.72045 | -5.36889 | 25112 ft | 425 kts | 43° |
| 2026-04-22 10:27 | 36.74105 | -5.34265 | 24642 ft | 422 kts | 43° |
| 2026-04-22 10:27 | 36.76157 | -5.31650 | 24174 ft | 420 kts | 43° |
| 2026-04-22 10:28 | 36.78198 | -5.29047 | 23711 ft | 417 kts | 43° |
| 2026-04-22 10:28 | 36.80212 | -5.26475 | 23255 ft | 415 kts | 44° |
| 2026-04-22 10:28 | 36.82217 | -5.23914 | 22802 ft | 413 kts | 44° |
| 2026-04-22 10:28 | 36.84215 | -5.21359 | 22348 ft | 411 kts | 44° |
| 2026-04-22 10:29 | 36.86200 | -5.18819 | 21896 ft | 409 kts | 44° |
| 2026-04-22 10:29 | 36.88179 | -5.16286 | 21447 ft | 407 kts | 44° |
| 2026-04-22 10:29 | 36.90144 | -5.13766 | 21002 ft | 405 kts | 44° |
| 2026-04-22 10:29 | 36.92077 | -5.11287 | 20557 ft | 403 kts | 44° |
| 2026-04-22 10:30 | 36.94021 | -5.08791 | 20117 ft | 401 kts | 44° |
| 2026-04-22 10:30 | 36.95960 | -5.06300 | 19678 ft | 399 kts | 44° |
| 2026-04-22 10:30 | 36.97889 | -5.03820 | 19232 ft | 397 kts | 44° |
| 2026-04-22 10:30 | 36.99810 | -5.01348 | 18792 ft | 395 kts | 44° |
| 2026-04-22 10:31 | 37.01713 | -4.98898 | 18356 ft | 393 kts | 44° |
| 2026-04-22 10:31 | 37.03612 | -4.96450 | 17931 ft | 392 kts | 44° |
| 2026-04-22 10:31 | 37.05215 | -4.93725 | 17497 ft | 391 kts | 66° |
| 2026-04-22 10:31 | 37.05958 | -4.90491 | 17128 ft | 389 kts | 80° |
| 2026-04-22 10:32 | 37.06451 | -4.87187 | 16568 ft | 387 kts | 81° |
| 2026-04-22 10:32 | 37.06915 | -4.83921 | 16209 ft | 380 kts | 81° |
| 2026-04-22 10:32 | 37.07367 | -4.80678 | 15756 ft | 378 kts | 82° |
| 2026-04-22 10:32 | 37.07812 | -4.77461 | 15381 ft | 374 kts | 82° |
| 2026-04-22 10:33 | 37.08252 | -4.74268 | 14975 ft | 372 kts | 82° |
| 2026-04-22 10:33 | 37.08689 | -4.71084 | 14578 ft | 369 kts | 82° |
| 2026-04-22 10:33 | 37.09121 | -4.67934 | 14157 ft | 366 kts | 82° |
| 2026-04-22 10:33 | 37.09551 | -4.64794 | 13772 ft | 364 kts | 82° |
| 2026-04-22 10:34 | 37.10028 | -4.61688 | 13364 ft | 363 kts | 80° |
| 2026-04-22 10:34 | 37.10560 | -4.58616 | 12960 ft | 361 kts | 80° |
| 2026-04-22 10:34 | 37.11087 | -4.55563 | 12576 ft | 359 kts | 80° |
| 2026-04-22 10:34 | 37.11608 | -4.52539 | 12190 ft | 356 kts | 80° |
| 2026-04-22 10:35 | 37.12130 | -4.49506 | 11774 ft | 353 kts | 80° |
| 2026-04-22 10:35 | 37.12641 | -4.46529 | 11391 ft | 347 kts | 80° |
| 2026-04-22 10:35 | 37.13137 | -4.43638 | 11019 ft | 338 kts | 80° |
| 2026-04-22 10:35 | 37.13622 | -4.40802 | 10656 ft | 329 kts | 81° |
| 2026-04-22 10:36 | 37.14094 | -4.38043 | 10295 ft | 321 kts | 81° |
| 2026-04-22 10:36 | 37.14555 | -4.35340 | 9940 ft | 313 kts | 81° |
| 2026-04-22 10:36 | 37.15005 | -4.32700 | 9605 ft | 305 kts | 81° |
| 2026-04-22 10:36 | 37.15442 | -4.30132 | 9261 ft | 298 kts | 81° |
| 2026-04-22 10:37 | 37.15863 | -4.27650 | 8947 ft | 291 kts | 81° |
| 2026-04-22 10:37 | 37.16685 | -4.22803 | 8322 ft | 277 kts | 81° |
| 2026-04-22 10:37 | 37.17081 | -4.20465 | 8037 ft | 271 kts | 81° |
| 2026-04-22 10:38 | 37.17466 | -4.18185 | 7743 ft | 265 kts | 81° |
| 2026-04-22 10:38 | 37.17839 | -4.15974 | 7464 ft | 260 kts | 81° |
| 2026-04-22 10:38 | 37.18208 | -4.13789 | 7181 ft | 255 kts | 81° |
| 2026-04-22 10:38 | 37.18547 | -4.11620 | 6846 ft | 250 kts | 88° |
| 2026-04-22 10:39 | 37.18589 | -4.09490 | 6595 ft | 240 kts | 91° |
| 2026-04-22 10:39 | 37.18611 | -4.07417 | 6245 ft | 235 kts | 91° |
| 2026-04-22 10:39 | 37.18631 | -4.05430 | 5900 ft | 222 kts | 91° |
| 2026-04-22 10:39 | 37.18650 | -4.03583 | 5603 ft | 202 kts | 90° |
| 2026-04-22 10:40 | 37.18667 | -4.01901 | 5318 ft | 185 kts | 91° |
| 2026-04-22 10:40 | 37.18681 | -4.00368 | 5060 ft | 172 kts | 90° |
| 2026-04-22 10:40 | 37.18695 | -3.98872 | 4837 ft | 170 kts | 90° |
| 2026-04-22 10:40 | 37.18708 | -3.97382 | 4624 ft | 171 kts | 90° |
| 2026-04-22 10:41 | 37.18722 | -3.95901 | 4405 ft | 172 kts | 90° |
| 2026-04-22 10:41 | 37.18735 | -3.94393 | 4175 ft | 172 kts | 90° |
| 2026-04-22 10:41 | 37.18749 | -3.92926 | 3993 ft | 159 kts | 90° |
| 2026-04-22 10:41 | 37.18761 | -3.91613 | 3740 ft | 146 kts | 90° |
| 2026-04-22 10:42 | 37.18771 | -3.90398 | 3525 ft | 135 kts | 90° |
| 2026-04-22 10:42 | 37.18780 | -3.89224 | 3363 ft | 134 kts | 90° |
| 2026-04-22 10:42 | 37.18790 | -3.88066 | 3207 ft | 134 kts | 90° |
| 2026-04-22 10:42 | 37.18793 | -3.86877 | 3044 ft | 138 kts | 90° |
| 2026-04-22 10:43 | 37.18802 | -3.85659 | 2852 ft | 139 kts | 89° |
| 2026-04-22 10:43 | 37.18820 | -3.84459 | 2628 ft | 141 kts | 89° |
| 2026-04-22 10:43 | 37.18833 | -3.83251 | 2460 ft | 138 kts | 89° |
| 2026-04-22 10:43 | 37.18840 | -3.82063 | 2289 ft | 136 kts | 90° |
| 2026-04-22 10:44 | 37.18843 | -3.80874 | 2120 ft | 136 kts | 89° |
| 2026-04-22 10:44 | 37.18854 | -3.79685 | 1951 ft | 138 kts | 88° |
| 2026-04-22 10:44 | 37.18868 | -3.78486 | 1860 ft | 128 kts | 90° |
| 2026-04-22 10:44 | 37.18875 | -3.77581 | 1866 ft | 80 kts | 89° |
| 2026-04-22 10:45 | 37.18868 | -3.77197 | 1868 ft | 28 kts | 105° |
| 2026-04-22 10:45 | 37.18803 | -3.77006 | 1871 ft | 19 kts | 118° |
| 2026-04-22 10:45 | 37.18739 | -3.76944 | 1873 ft | 10 kts | 199° |
| 2026-04-22 10:45 | 37.18714 | -3.77020 | 1873 ft | 10 kts | 268° |
| 2026-04-22 10:46 | 37.18712 | -3.77110 | 1873 ft | 10 kts | 269° |
| 2026-04-22 10:46 | 37.18712 | -3.77207 | 1872 ft | 11 kts | 270° |
| 2026-04-22 10:46 | 37.18712 | -3.77317 | 1871 ft | 13 kts | 270° |
| 2026-04-22 10:46 | 37.18711 | -3.77435 | 1871 ft | 13 kts | 269° |
| 2026-04-22 10:47 | 37.18711 | -3.77533 | 1871 ft | 8 kts | 269° |
| 2026-04-22 10:47 | 37.18702 | -3.77606 | 1872 ft | 8 kts | 231° |
| 2026-04-22 10:47 | 37.18652 | -3.77618 | 1873 ft | 6 kts | 179° |
| 2026-04-22 10:47 | 37.18611 | -3.77618 | 1874 ft | 5 kts | 179° |
| 2026-04-22 10:48 | 37.18580 | -3.77618 | 1875 ft | 3 kts | 192° |
| 2026-04-22 10:48 | 37.18569 | -3.77642 | 1875 ft | 3 kts | 266° |
| 2026-04-22 10:48 | 37.18568 | -3.77680 | 1874 ft | 2 kts | 269° |
| 2026-04-22 10:48 | 37.18568 | -3.77684 | 1874 ft | 0 kts | 269° |